createdAt,value
2023-02-06T00:01:48.648Z,60.52
2023-02-06T00:04:15.772Z,60.74
2023-02-06T00:06:42.606Z,60.40
2023-02-06T00:09:09.643Z,60.38
2023-02-06T00:11:37.074Z,60.16
2023-02-06T00:14:03.673Z,59.82
2023-02-06T00:16:33.608Z,59.40
2023-02-06T00:19:00.910Z,59.50
2023-02-06T00:21:28.951Z,59.48
2023-02-06T00:23:58.038Z,59.24
2023-02-06T00:26:25.213Z,59.63
2023-02-06T00:28:51.964Z,59.55
2023-02-06T00:31:18.882Z,59.43
2023-02-06T00:33:45.439Z,59.42
2023-02-06T00:36:12.045Z,59.48
2023-02-06T00:38:39.399Z,59.38
2023-02-06T00:41:06.168Z,59.32
2023-02-06T00:43:33.114Z,60.23
2023-02-06T00:45:59.649Z,60.26
2023-02-06T00:48:27.104Z,60.38
2023-02-06T00:50:54.114Z,60.10
2023-02-06T00:53:21.056Z,60.04
2023-02-06T00:55:47.664Z,60.06
2023-02-06T00:58:14.268Z,60.12
2023-02-06T01:00:40.869Z,59.82
2023-02-06T01:03:07.402Z,60.04
2023-02-06T01:05:34.222Z,59.92
2023-02-06T01:08:02.819Z,60.60
2023-02-06T01:10:30.800Z,60.67
2023-02-06T01:12:57.287Z,60.23
2023-02-06T01:15:23.863Z,61.17
2023-02-06T01:17:50.438Z,60.15
2023-02-06T01:20:17.227Z,60.33
2023-02-06T01:22:43.778Z,60.31
2023-02-06T01:25:10.316Z,60.03
2023-02-06T01:27:37.899Z,59.89
2023-02-06T01:30:06.359Z,60.14
2023-02-06T01:32:36.225Z,59.72
2023-02-06T01:35:02.716Z,59.93
2023-02-06T01:37:29.704Z,60.02
2023-02-06T01:39:56.647Z,59.90
2023-02-06T01:42:23.109Z,60.34
2023-02-06T01:44:49.609Z,60.99
2023-02-06T01:47:17.870Z,60.71
2023-02-06T01:49:49.164Z,61.35
2023-02-06T01:52:17.587Z,61.30
2023-02-06T01:54:46.320Z,60.52
2023-02-06T01:57:13.496Z,61.50
2023-02-06T01:59:42.662Z,62.11
2023-02-06T02:02:09.274Z,61.47
2023-02-06T02:04:36.118Z,61.25
2023-02-06T02:07:11.405Z,61.18
2023-02-06T02:09:37.888Z,60.57
2023-02-06T02:12:04.630Z,61.05
2023-02-06T02:14:31.229Z,60.95
2023-02-06T02:17:28.175Z,61.13
2023-02-06T02:20:32.480Z,61.06
2023-02-06T02:23:10.952Z,60.75
2023-02-06T02:26:02.360Z,60.59
2023-02-06T02:29:04.511Z,60.32
2023-02-06T02:31:43.170Z,59.92
2023-02-06T02:34:52.525Z,60.19
2023-02-06T02:37:35.202Z,60.24
2023-02-06T02:40:19.337Z,60.09
2023-02-06T02:42:54.077Z,60.01
2023-02-06T02:45:25.257Z,59.86
2023-02-06T02:48:05.294Z,60.49
2023-02-06T02:50:32.734Z,60.63
2023-02-06T02:53:00.821Z,60.80
2023-02-06T02:55:27.489Z,60.36
2023-02-06T02:57:59.964Z,60.13
2023-02-06T03:00:26.567Z,60.37
2023-02-06T03:02:54.260Z,60.13
2023-02-06T03:05:24.403Z,59.79
2023-02-06T03:08:06.170Z,59.52
2023-02-06T03:10:44.701Z,59.51
2023-02-06T03:13:21.562Z,59.80
2023-02-06T03:15:54.032Z,60.18
2023-02-06T03:18:25.740Z,60.06
2023-02-06T03:20:52.539Z,60.23
2023-02-06T03:23:23.402Z,60.45
2023-02-06T03:25:53.149Z,63.34
2023-02-06T03:28:26.527Z,62.12
2023-02-06T03:30:55.778Z,61.32
2023-02-06T03:33:27.337Z,61.91
2023-02-06T03:35:55.247Z,61.56
2023-02-06T03:38:24.648Z,61.01
2023-02-06T03:40:52.012Z,60.68
2023-02-06T03:43:20.264Z,60.89
2023-02-06T03:45:49.859Z,61.43
2023-02-06T03:48:24.861Z,61.30
2023-02-06T03:50:54.248Z,61.01
2023-02-06T03:53:22.392Z,60.68
2023-02-06T03:55:50.896Z,60.53
2023-02-06T03:58:18.265Z,60.45
2023-02-06T04:00:46.136Z,60.22
2023-02-06T04:03:13.228Z,60.35
2023-02-06T04:05:40.686Z,60.40
2023-02-06T04:08:07.309Z,60.10
2023-02-06T04:10:33.899Z,60.06
2023-02-06T04:13:01.377Z,60.04
2023-02-06T04:15:27.891Z,60.19
2023-02-06T04:18:00.359Z,60.42
2023-02-06T04:20:28.314Z,60.92
2023-02-06T04:22:54.927Z,60.56
2023-02-06T04:25:21.519Z,60.30
2023-02-06T04:27:48.235Z,60.01
2023-02-06T04:30:15.724Z,59.49
2023-02-06T04:32:42.292Z,59.64
2023-02-06T04:35:09.099Z,59.61
2023-02-06T04:37:35.700Z,60.05
2023-02-06T04:40:02.256Z,60.66
2023-02-06T04:42:29.039Z,60.23
2023-02-06T04:44:55.518Z,61.11
2023-02-06T04:47:22.197Z,62.95
2023-02-06T04:49:48.743Z,61.98
2023-02-06T04:52:15.337Z,61.44
2023-02-06T04:54:41.863Z,61.18
2023-02-06T04:57:08.774Z,61.07
2023-02-06T04:59:35.400Z,61.05
2023-02-06T05:02:02.023Z,60.64
2023-02-06T05:04:28.576Z,60.60
2023-02-06T05:06:55.039Z,59.97
2023-02-06T05:09:21.527Z,59.96
2023-02-06T05:11:48.006Z,59.88
2023-02-06T05:14:14.797Z,60.09
2023-02-06T05:16:41.322Z,60.07
2023-02-06T05:19:07.908Z,59.86
2023-02-06T05:21:34.410Z,59.85
2023-02-06T05:24:00.914Z,59.92
2023-02-06T05:26:27.706Z,59.75
2023-02-06T05:28:54.208Z,59.16
2023-02-06T05:31:20.766Z,59.48
2023-02-06T05:33:51.141Z,59.84
2023-02-06T05:36:19.905Z,59.61
2023-02-06T05:38:47.090Z,59.43
2023-02-06T05:41:14.079Z,61.90
2023-02-06T05:43:41.109Z,61.88
2023-02-06T05:46:09.501Z,63.47
2023-02-06T05:48:36.079Z,65.45
2023-02-06T05:51:02.681Z,64.82
2023-02-06T05:53:29.514Z,65.63
2023-02-06T05:55:56.897Z,65.71
2023-02-06T05:58:23.653Z,66.14
2023-02-06T06:00:50.300Z,67.66
2023-02-06T06:03:17.016Z,65.31
2023-02-06T06:05:43.539Z,65.57
2023-02-06T06:08:10.062Z,65.61
2023-02-06T06:10:36.584Z,64.92
2023-02-06T06:13:03.551Z,64.80
2023-02-06T06:15:30.114Z,64.50
2023-02-06T06:17:56.684Z,63.80
2023-02-06T06:20:23.644Z,64.75
2023-02-06T06:22:50.145Z,65.56
2023-02-06T06:25:17.093Z,65.94
2023-02-06T06:27:43.648Z,66.62
2023-02-06T06:30:11.115Z,66.87
2023-02-06T06:32:37.708Z,67.49
2023-02-06T06:35:04.493Z,66.61
2023-02-06T06:37:30.980Z,66.97
2023-02-06T06:39:57.746Z,66.80
2023-02-06T06:42:24.409Z,67.67
2023-02-06T06:44:50.909Z,68.21
2023-02-06T06:47:17.508Z,67.27
2023-02-06T06:49:44.015Z,67.59
2023-02-06T06:52:23.030Z,66.35
2023-02-06T06:54:52.515Z,67.66
2023-02-06T06:57:19.743Z,67.57
2023-02-06T06:59:46.302Z,67.53
2023-02-06T07:02:13.058Z,66.95
2023-02-06T07:04:39.850Z,65.90
2023-02-06T07:07:06.741Z,64.73
2023-02-06T07:09:33.342Z,64.98
2023-02-06T07:12:00.199Z,64.17
2023-02-06T07:14:26.745Z,64.36
2023-02-06T07:16:53.435Z,64.40
2023-02-06T07:19:21.285Z,63.66
2023-02-06T07:21:47.906Z,64.55
2023-02-06T07:24:14.358Z,63.79
2023-02-06T07:26:41.569Z,63.55
2023-02-06T07:29:08.222Z,63.60
2023-02-06T07:31:34.829Z,63.63
2023-02-06T07:34:02.321Z,63.38
2023-02-06T07:36:28.854Z,62.65
2023-02-06T07:38:55.457Z,63.19
2023-02-06T07:41:22.171Z,62.36
2023-02-06T07:43:48.650Z,62.07
2023-02-06T07:46:15.484Z,61.55
2023-02-06T07:48:42.523Z,62.83
2023-02-06T07:51:09.628Z,61.57
2023-02-06T07:53:36.709Z,61.46
2023-02-06T07:56:09.809Z,61.43
2023-02-06T07:58:36.360Z,61.33
2023-02-06T08:01:05.181Z,60.62
2023-02-06T08:03:32.422Z,60.38
2023-02-06T08:05:59.702Z,59.94
2023-02-06T08:08:26.318Z,59.71
2023-02-06T08:10:52.813Z,59.30
2023-02-06T08:13:19.309Z,59.44
2023-02-06T08:15:45.853Z,61.36
2023-02-06T08:18:13.013Z,60.56
2023-02-06T08:20:39.505Z,60.23
2023-02-06T08:23:08.025Z,61.44
2023-02-06T08:25:35.011Z,60.63
2023-02-06T08:28:01.874Z,60.60
2023-02-06T08:30:28.494Z,61.06
2023-02-06T08:32:55.021Z,60.79
2023-02-06T08:35:21.534Z,60.23
2023-02-06T08:37:48.447Z,60.11
2023-02-06T08:40:15.374Z,60.45
2023-02-06T08:42:42.222Z,60.22
2023-02-06T08:45:09.688Z,59.67
2023-02-06T08:47:36.174Z,59.42
2023-02-06T08:50:03.732Z,59.36
2023-02-06T08:52:30.500Z,58.79
2023-02-06T08:54:57.073Z,58.70
2023-02-06T08:57:23.655Z,58.26
2023-02-06T08:59:50.459Z,59.85
2023-02-06T09:02:17.139Z,58.96
2023-02-06T09:04:43.699Z,58.42
2023-02-06T09:07:10.311Z,58.07
2023-02-06T09:09:36.848Z,59.56
2023-02-06T09:12:04.121Z,58.52
2023-02-06T09:14:30.922Z,57.80
2023-02-06T09:16:58.157Z,58.04
2023-02-06T09:19:25.582Z,57.75
2023-02-06T09:21:52.273Z,57.44
2023-02-06T09:24:18.817Z,56.89
2023-02-06T09:26:59.116Z,56.62
2023-02-06T09:29:28.976Z,56.18
2023-02-06T09:31:57.553Z,55.87
2023-02-06T09:34:25.843Z,55.61
2023-02-06T09:36:54.483Z,55.29
2023-02-06T09:39:21.293Z,55.16
2023-02-06T09:41:53.664Z,55.33
2023-02-06T09:44:22.151Z,56.56
2023-02-06T09:46:57.679Z,56.73
2023-02-06T09:49:39.145Z,57.03
2023-02-06T09:52:42.706Z,56.18
2023-02-06T09:55:48.009Z,55.38
2023-02-06T09:58:20.694Z,55.04
2023-02-06T10:00:57.078Z,55.69
2023-02-06T10:03:42.465Z,56.90
2023-02-06T10:06:21.247Z,56.36
2023-02-06T10:09:00.129Z,55.78
2023-02-06T10:12:05.237Z,58.24
2023-02-06T10:15:01.783Z,57.26
2023-02-06T10:17:32.670Z,56.38
2023-02-06T10:20:11.186Z,55.64
2023-02-06T10:22:47.486Z,55.32
2023-02-06T10:25:29.588Z,53.95
2023-02-06T10:28:02.954Z,52.20
2023-02-06T10:31:01.787Z,51.44
2023-02-06T10:33:36.207Z,51.15
2023-02-06T10:36:29.200Z,51.43
2023-02-06T10:39:14.734Z,51.29
2023-02-06T10:42:05.161Z,51.13
2023-02-06T10:44:34.673Z,50.95
2023-02-06T10:47:01.430Z,50.97
2023-02-06T10:49:38.319Z,50.75
2023-02-06T10:52:19.485Z,50.47
2023-02-06T10:54:51.122Z,50.87
2023-02-06T10:57:20.922Z,50.56
2023-02-06T10:59:53.569Z,50.66
2023-02-06T11:02:24.808Z,50.00
2023-02-06T11:04:51.644Z,50.08
2023-02-06T11:07:25.129Z,50.79
2023-02-06T11:09:52.930Z,51.12
2023-02-06T11:12:28.127Z,51.13
2023-02-06T11:14:58.887Z,50.81
2023-02-06T11:17:28.264Z,50.24
2023-02-06T11:20:01.673Z,50.15
2023-02-06T11:22:34.888Z,51.00
2023-02-06T11:25:20.621Z,50.47
2023-02-06T11:27:47.303Z,50.14
2023-02-06T11:30:35.883Z,50.16
2023-02-06T11:33:35.030Z,50.64
2023-02-06T11:36:04.108Z,51.35
2023-02-06T11:38:32.077Z,51.26
2023-02-06T11:41:00.681Z,51.63
2023-02-06T11:43:48.599Z,52.35
2023-02-06T11:46:20.961Z,52.98
2023-02-06T11:49:08.813Z,52.22
2023-02-06T11:51:46.882Z,52.72
2023-02-06T11:54:43.131Z,52.28
2023-02-06T11:57:23.213Z,52.80
2023-02-06T11:59:55.709Z,53.81
2023-02-06T12:02:28.776Z,53.53
2023-02-06T12:05:04.002Z,53.95
2023-02-06T12:08:02.452Z,54.00
2023-02-06T12:10:33.135Z,55.32
2023-02-06T12:13:08.602Z,56.36
2023-02-06T12:15:47.604Z,54.83
2023-02-06T12:18:27.274Z,54.57
2023-02-06T12:21:04.878Z,54.19
2023-02-06T12:23:39.291Z,53.57
2023-02-06T12:26:11.166Z,53.66
2023-02-06T12:29:12.698Z,54.13
2023-02-06T12:31:45.698Z,53.36
2023-02-06T12:34:28.702Z,54.02
2023-02-06T12:37:14.924Z,54.18
2023-02-06T12:39:42.912Z,53.97
2023-02-06T12:42:09.434Z,54.01
2023-02-06T12:45:02.084Z,55.49
2023-02-06T12:47:46.698Z,54.79
2023-02-06T12:50:19.171Z,54.58
2023-02-06T12:52:51.069Z,55.59
2023-02-06T12:55:56.061Z,55.71
2023-02-06T12:58:42.860Z,55.54
2023-02-06T13:01:31.650Z,56.21
2023-02-06T13:04:02.979Z,55.75
2023-02-06T13:07:09.951Z,55.62
2023-02-06T13:10:03.393Z,55.25
2023-02-06T13:12:30.897Z,54.36
2023-02-06T13:14:58.930Z,53.46
2023-02-06T13:17:44.819Z,53.12
2023-02-06T13:20:12.575Z,52.07
2023-02-06T13:22:40.413Z,50.82
2023-02-06T13:25:25.770Z,49.40
2023-02-06T13:27:53.491Z,49.97
2023-02-06T13:30:29.088Z,49.47
2023-02-06T13:32:58.756Z,49.90
2023-02-06T13:35:30.425Z,50.99
2023-02-06T13:38:22.011Z,53.05
2023-02-06T13:40:49.103Z,52.73
2023-02-06T13:43:20.134Z,52.73
2023-02-06T13:45:47.954Z,53.29
2023-02-06T13:48:23.642Z,53.75
2023-02-06T13:51:05.305Z,53.59
2023-02-06T13:53:49.789Z,54.37
2023-02-06T13:56:35.116Z,55.13
2023-02-06T13:59:06.497Z,54.31
2023-02-06T14:01:33.898Z,54.26
2023-02-06T14:04:00.757Z,54.60
2023-02-06T14:06:36.390Z,55.08
2023-02-06T14:10:06.351Z,55.27
2023-02-06T14:12:39.442Z,55.27
2023-02-06T14:15:50.219Z,56.18
2023-02-06T14:18:39.385Z,58.00
2023-02-06T14:21:46.786Z,58.04
2023-02-06T14:24:39.793Z,57.82
2023-02-06T14:27:06.303Z,57.45
2023-02-06T14:29:35.823Z,56.58
2023-02-06T14:32:11.488Z,56.24
2023-02-06T14:34:42.621Z,56.19
2023-02-06T14:37:43.224Z,57.25
2023-02-06T14:40:15.915Z,57.01
2023-02-06T14:42:45.132Z,57.67
2023-02-06T14:45:18.865Z,57.18
2023-02-06T14:47:46.268Z,56.98
2023-02-06T14:50:23.224Z,57.84
2023-02-06T14:52:56.389Z,57.31
2023-02-06T14:55:30.753Z,57.31
2023-02-06T14:57:58.864Z,57.69
2023-02-06T15:00:26.373Z,57.62
2023-02-06T15:03:15.997Z,57.63
2023-02-06T15:05:43.525Z,57.24
2023-02-06T15:08:20.205Z,57.22
2023-02-06T15:10:47.323Z,58.85
2023-02-06T15:13:34.728Z,59.53
2023-02-06T15:16:07.330Z,59.46
2023-02-06T15:18:34.967Z,58.57
2023-02-06T15:21:03.875Z,59.80
2023-02-06T15:23:55.585Z,60.51
2023-02-06T15:26:28.264Z,61.02
2023-02-06T15:29:04.094Z,60.47
2023-02-06T15:31:31.041Z,60.40
2023-02-06T15:33:59.770Z,59.78
2023-02-06T15:36:39.051Z,60.28
2023-02-06T15:39:07.996Z,59.33
2023-02-06T15:41:34.958Z,59.58
2023-02-06T15:44:12.298Z,59.84
2023-02-06T15:46:39.036Z,59.83
2023-02-06T15:49:06.947Z,59.71
2023-02-06T15:51:50.457Z,59.72
2023-02-06T15:54:21.232Z,59.04
2023-02-06T15:56:54.733Z,59.64
2023-02-06T15:59:25.164Z,59.97
2023-02-06T16:01:54.346Z,58.95
2023-02-06T16:04:29.231Z,59.10
2023-02-06T16:07:20.076Z,59.63
2023-02-06T16:10:03.793Z,60.06
2023-02-06T16:12:40.470Z,58.97
2023-02-06T16:15:36.141Z,58.69
2023-02-06T16:18:19.414Z,58.88
2023-02-06T16:20:46.698Z,58.21
2023-02-06T16:23:28.819Z,57.91
2023-02-06T16:26:05.403Z,58.15
2023-02-06T16:28:32.101Z,57.68
2023-02-06T16:31:01.799Z,57.70
2023-02-06T16:33:36.331Z,57.33
2023-02-06T16:36:03.502Z,57.21
2023-02-06T16:38:30.067Z,57.40
2023-02-06T16:40:56.650Z,57.14
2023-02-06T16:43:23.210Z,57.85
2023-02-06T16:45:50.284Z,57.76
2023-02-06T16:48:17.630Z,58.13
2023-02-06T16:50:45.841Z,58.46
2023-02-06T16:53:23.558Z,58.45
2023-02-06T16:55:50.224Z,58.23
2023-02-06T16:58:22.421Z,57.99
2023-02-06T17:00:49.532Z,58.22
2023-02-06T17:03:17.613Z,57.88
2023-02-06T17:05:45.720Z,58.27
2023-02-06T17:08:23.637Z,58.18
2023-02-06T17:10:51.626Z,58.02
2023-02-06T17:13:23.135Z,58.02
2023-02-06T17:15:52.221Z,58.29
2023-02-06T17:18:20.767Z,58.31
2023-02-06T17:20:51.583Z,58.36
2023-02-06T17:23:18.530Z,58.43
2023-02-06T17:25:46.369Z,58.52
2023-02-06T17:28:17.036Z,58.80
2023-02-06T17:30:44.831Z,59.09
2023-02-06T17:33:11.910Z,59.13
2023-02-06T17:35:38.597Z,59.08
2023-02-06T17:38:07.038Z,59.64
2023-02-06T17:40:35.547Z,59.38
2023-02-06T17:43:04.607Z,59.54
2023-02-06T17:45:31.497Z,59.63
2023-02-06T17:47:58.360Z,59.95
2023-02-06T17:50:27.247Z,60.00
2023-02-06T17:52:56.149Z,59.93
2023-02-06T17:55:23.746Z,59.65
2023-02-06T17:57:50.422Z,60.07
2023-02-06T18:00:19.242Z,59.93
2023-02-06T18:02:48.070Z,59.29
2023-02-06T18:05:14.737Z,59.91
2023-02-06T18:07:41.578Z,60.13
2023-02-06T18:10:08.832Z,60.16
2023-02-06T18:12:35.822Z,60.44
2023-02-06T18:15:03.451Z,60.41
2023-02-06T18:17:30.930Z,60.10
2023-02-06T18:19:57.563Z,60.41
2023-02-06T18:22:24.168Z,59.94
2023-02-06T18:24:50.928Z,60.29
2023-02-06T18:27:18.940Z,60.12
2023-02-06T18:29:50.142Z,59.82
2023-02-06T18:32:18.544Z,59.77
2023-02-06T18:34:45.755Z,60.45
2023-02-06T18:37:12.803Z,59.70
2023-02-06T18:39:39.635Z,60.29
2023-02-06T18:42:24.866Z,60.35
2023-02-06T18:44:51.458Z,60.41
2023-02-06T18:47:18.893Z,60.82
2023-02-06T18:49:45.681Z,60.84
2023-02-06T18:52:12.526Z,60.68
2023-02-06T18:54:39.621Z,60.50
2023-02-06T18:57:06.543Z,60.61
2023-02-06T18:59:33.175Z,60.46
2023-02-06T19:01:59.858Z,60.97
2023-02-06T19:04:26.430Z,60.60
2023-02-06T19:06:52.969Z,60.36
2023-02-06T19:09:22.426Z,60.12
2023-02-06T19:11:48.964Z,60.24
2023-02-06T19:14:17.488Z,60.40
2023-02-06T19:16:47.403Z,60.74
2023-02-06T19:19:14.987Z,60.83
2023-02-06T19:21:42.187Z,60.85
2023-02-06T19:24:12.503Z,61.30
2023-02-06T19:26:39.493Z,60.83
2023-02-06T19:29:06.313Z,61.02
2023-02-06T19:31:33.202Z,60.04
2023-02-06T19:34:01.738Z,60.67
2023-02-06T19:36:29.402Z,60.14
2023-02-06T19:38:58.516Z,60.25
2023-02-06T19:41:27.984Z,60.04
2023-02-06T19:43:55.935Z,60.23
2023-02-06T19:46:25.208Z,60.56
2023-02-06T19:48:52.311Z,60.21
2023-02-06T19:51:21.270Z,61.36
2023-02-06T19:53:50.156Z,61.83
2023-02-06T19:56:34.548Z,60.87
2023-02-06T19:59:05.120Z,61.14
2023-02-06T20:01:32.160Z,60.70
2023-02-06T20:04:00.176Z,60.54
2023-02-06T20:06:28.356Z,60.55
2023-02-06T20:08:56.793Z,61.04
2023-02-06T20:11:23.588Z,60.57
2023-02-06T20:13:52.367Z,60.16
2023-02-06T20:16:25.465Z,60.52
2023-02-06T20:18:53.589Z,60.12
2023-02-06T20:21:33.672Z,60.23
2023-02-06T20:24:03.633Z,60.23
2023-02-06T20:26:33.236Z,59.84
2023-02-06T20:29:00.330Z,59.81
2023-02-06T20:31:28.092Z,59.71
2023-02-06T20:33:54.969Z,60.35
2023-02-06T20:36:24.192Z,60.62
2023-02-06T20:38:56.017Z,60.33
2023-02-06T20:41:28.666Z,60.05
2023-02-06T20:43:59.921Z,59.76
2023-02-06T20:46:29.681Z,59.89
2023-02-06T20:49:01.947Z,59.66
2023-02-06T20:51:28.850Z,59.06
2023-02-06T20:53:55.854Z,59.25
2023-02-06T20:56:23.350Z,59.39
2023-02-06T20:58:51.184Z,59.19
2023-02-06T21:01:23.224Z,59.35
2023-02-06T21:03:51.859Z,59.20
2023-02-06T21:06:18.809Z,59.13
2023-02-06T21:08:47.121Z,59.91
2023-02-06T21:11:14.071Z,59.37
2023-02-06T21:13:41.298Z,59.26
2023-02-06T21:16:08.661Z,59.32
2023-02-06T21:18:35.607Z,60.79
2023-02-06T21:21:09.394Z,60.21
2023-02-06T21:23:40.296Z,60.04
2023-02-06T21:26:08.098Z,59.77
2023-02-06T21:28:35.522Z,60.46
2023-02-06T21:31:05.667Z,60.39
2023-02-06T21:33:32.608Z,60.16
2023-02-06T21:36:01.693Z,59.76
2023-02-06T21:38:28.317Z,60.00
2023-02-06T21:40:55.156Z,59.97
2023-02-06T21:43:21.713Z,59.84
2023-02-06T21:45:48.486Z,60.04
2023-02-06T21:48:15.312Z,59.82
2023-02-06T21:50:42.043Z,60.15
2023-02-06T21:53:09.484Z,60.05
2023-02-06T21:55:41.940Z,60.06
2023-02-06T21:58:08.801Z,60.29
2023-02-06T22:00:35.352Z,61.55
2023-02-06T22:03:02.099Z,61.99
2023-02-06T22:05:29.171Z,62.62
2023-02-06T22:07:56.810Z,63.58
2023-02-06T22:10:23.573Z,64.95
2023-02-06T22:12:50.157Z,64.08
2023-02-06T22:15:16.789Z,63.60
2023-02-06T22:17:43.374Z,62.75
2023-02-06T22:20:10.221Z,64.09
2023-02-06T22:22:38.677Z,63.68
2023-02-06T22:25:05.791Z,63.63
2023-02-06T22:27:33.114Z,62.67
2023-02-06T22:29:59.865Z,62.35
2023-02-06T22:32:26.688Z,61.84
2023-02-06T22:34:53.989Z,61.73
2023-02-06T22:37:20.869Z,61.23
2023-02-06T22:39:47.424Z,60.98
2023-02-06T22:42:14.022Z,60.47
2023-02-06T22:44:40.677Z,60.34
2023-02-06T22:47:07.374Z,60.22
2023-02-06T22:49:34.002Z,60.11
2023-02-06T22:52:00.552Z,59.97
2023-02-06T22:54:27.144Z,60.00
2023-02-06T22:56:53.698Z,59.54
2023-02-06T22:59:23.105Z,59.55
2023-02-06T23:01:51.953Z,59.08
2023-02-06T23:04:28.276Z,59.17
2023-02-06T23:06:55.757Z,59.26
2023-02-06T23:09:26.956Z,58.98
2023-02-06T23:11:54.310Z,59.06
2023-02-06T23:14:21.424Z,58.65
2023-02-06T23:16:48.377Z,59.18
2023-02-06T23:19:15.652Z,58.72
2023-02-06T23:21:43.158Z,60.35
2023-02-06T23:24:11.219Z,59.85
2023-02-06T23:26:38.204Z,59.00
2023-02-06T23:29:06.517Z,58.96
2023-02-06T23:31:33.557Z,58.66
2023-02-06T23:34:00.872Z,59.13
2023-02-06T23:36:28.076Z,58.94
2023-02-06T23:38:55.080Z,59.55
2023-02-06T23:41:27.205Z,59.34
2023-02-06T23:43:58.404Z,61.28
2023-02-06T23:46:26.714Z,62.14
2023-02-06T23:48:53.627Z,61.16
2023-02-06T23:51:20.879Z,60.84
2023-02-06T23:53:47.786Z,62.91
2023-02-06T23:56:20.584Z,64.67
2023-02-06T23:58:47.386Z,63.65
